N Myrtle Beach, South Carolina
Current Conditions -  °F | °C
As of 8:53 PM on Tuesday 25 Nov 2014 (Local Time) from KCRE Reporting Station
Light Rain Light Rain  
Wind Chill: 63°   Ceiling: 400
Heat Index: 63°   Visibility: 6mi
Dew Point: 61°   Wind: 8mph
Humidity: 93%   Direction: 80°E
Pressure: 30.04"   Gusts: NA
Location:  33.82°N, 78.68°W
Report Text: KCRE 260153Z AUTO 08007KT 6SM -RA BR OVC004 17/16 A3004 RMK AO1 SLP172 P0001 T01720161
Loading
Personal Weather Stations






























Interactive Weather Map New forecast layout! Learn more

10-Day Weather Forecast

Advertisements
Track Severe Weather on mobile